Time;durP1;ratioP1;P1;durP2;ratioP2;P2;SDS_P1;SDS_P2;PMS_P1;PMS_P2;Temp;Humidity;BMP_temperature;BMP_pressure;BME280_temperature;BME280_humidity;BME280_pressure;Samples;Min_cycle;Max_cycle;Signal;HPM_P1;HPM_P2
2023/07/07 00:02:15;;;;;;;1.15;0.60;;;15.10;97.80;;;;;;5001673;28;20061;-77
2023/07/07 00:04:42;;;;;;;0.45;0.40;;;15.10;98.20;;;;;;5000994;28;20065;-79
2023/07/07 00:07:09;;;;;;;0.32;0.32;;;15.00;98.00;;;;;;5001587;28;20101;-77
2023/07/07 00:09:36;;;;;;;0.40;0.35;;;15.00;98.10;;;;;;5001168;28;20446;-78
2023/07/07 00:12:03;;;;;;;0.60;0.40;;;15.00;98.10;;;;;;5001754;28;20053;-77
2023/07/07 00:14:29;;;;;;;1.17;0.80;;;14.90;98.30;;;;;;5000668;28;20089;-78
2023/07/07 00:17:01;;;;;;;0.43;0.32;;;14.90;98.40;;;;;;5001276;28;20057;-79
2023/07/07 00:19:32;;;;;;;0.68;0.43;;;14.90;98.40;;;;;;5001002;28;20060;-78
2023/07/07 00:22:05;;;;;;;1.10;0.55;;;14.90;98.70;;;;;;4983881;28;20437;-79
2023/07/07 00:24:36;;;;;;;0.22;0.20;;;14.90;99.10;;;;;;4967821;28;20081;-78
2023/07/07 00:27:03;;;;;;;0.93;0.60;;;14.80;98.90;;;;;;4984089;28;20136;-78
2023/07/07 00:29:29;;;;;;;1.40;0.65;;;14.80;99.00;;;;;;5001038;28;20061;-78
2023/07/07 00:31:57;;;;;;;1.42;1.00;;;14.80;99.00;;;;;;4985120;28;20046;-78
2023/07/07 00:34:26;;;;;;;1.55;0.70;;;14.80;99.10;;;;;;4986236;28;20053;-78
2023/07/07 00:36:53;;;;;;;0.70;0.57;;;14.80;99.10;;;;;;5000344;28;20050;-78
2023/07/07 00:39:19;;;;;;;0.77;0.40;;;14.80;99.10;;;;;;5000782;28;20053;-77
2023/07/07 00:41:46;;;;;;;0.70;0.43;;;14.80;99.20;;;;;;5000293;28;20480;-78
2023/07/07 00:44:13;;;;;;;1.20;0.52;;;14.70;99.10;;;;;;5000588;28;20046;-78
2023/07/07 00:46:40;;;;;;;0.65;0.50;;;14.70;99.20;;;;;;4983066;28;20516;-79
2023/07/07 00:49:11;;;;;;;1.13;0.60;;;14.70;99.30;;;;;;4966802;28;20696;-79
2023/07/07 00:51:44;;;;;;;1.23;0.60;;;14.70;99.40;;;;;;4967179;28;20053;-77
2023/07/07 00:54:14;;;;;;;0.82;0.57;;;14.60;99.60;;;;;;4966897;28;20049;-77
2023/07/07 00:56:43;;;;;;;0.47;0.40;;;14.60;99.90;;;;;;5001078;28;20057;-78
2023/07/07 00:59:12;;;;;;;0.68;0.60;;;14.50;99.90;;;;;;5000267;28;20417;-77
2023/07/07 01:01:39;;;;;;;0.65;0.50;;;14.50;99.90;;;;;;4978910;28;20136;-77
2023/07/07 01:04:09;;;;;;;0.63;0.50;;;14.40;99.90;;;;;;5000311;28;20655;-79
2023/07/07 01:06:39;;;;;;;0.80;0.70;;;14.40;99.90;;;;;;4978733;28;20053;-78
2023/07/07 01:09:08;;;;;;;0.77;0.60;;;14.30;99.90;;;;;;4982675;28;20046;-79
2023/07/07 01:11:36;;;;;;;0.75;0.70;;;14.30;99.90;;;;;;4966959;28;20050;-79
2023/07/07 01:14:06;;;;;;;0.90;0.60;;;14.30;99.90;;;;;;4982843;28;20100;-78
2023/07/07 01:16:53;;;;;;;1.63;0.55;;;14.30;99.90;;;;;;4987317;28;20493;-78
2023/07/07 01:19:25;;;;;;;0.57;0.47;;;14.30;99.90;;;;;;4966387;28;20056;-79
2023/07/07 01:22:14;;;;;;;0.77;0.52;;;14.30;99.90;;;;;;5000757;28;20120;-80
2023/07/07 01:24:52;;;;;;;0.63;0.50;;;14.30;99.90;;;;;;4989228;28;20053;-79
2023/07/07 01:27:22;;;;;;;0.82;0.50;;;14.30;99.90;;;;;;4987308;28;20061;-79
2023/07/07 01:30:31;;;;;;;1.38;0.60;;;14.30;99.90;;;;;;5000742;28;20069;-79
2023/07/07 01:33:01;;;;;;;0.90;0.60;;;14.30;99.90;;;;;;4975753;28;20041;-78
2023/07/07 01:35:28;;;;;;;0.50;0.43;;;14.20;99.90;;;;;;4969984;28;20453;-77
2023/07/07 01:37:56;;;;;;;0.70;0.50;;;14.20;99.90;;;;;;5003128;28;20109;-77
2023/07/07 01:40:40;;;;;;;1.02;0.60;;;14.20;99.90;;;;;;4986546;28;20497;-78
2023/07/07 01:43:10;;;;;;;0.70;0.50;;;14.10;99.90;;;;;;4987012;28;20097;-78
2023/07/07 01:46:02;;;;;;;1.10;0.60;;;14.10;99.90;;;;;;4971079;28;20049;-78
2023/07/07 01:48:46;;;;;;;1.30;0.65;;;14.10;99.90;;;;;;4973300;28;20412;-78
2023/07/07 01:51:13;;;;;;;0.55;0.40;;;14.00;99.90;;;;;;4967224;28;20046;-77
2023/07/07 01:53:40;;;;;;;0.85;0.35;;;14.00;99.90;;;;;;4979725;28;20484;-79
2023/07/07 01:56:07;;;;;;;0.52;0.35;;;14.00;99.90;;;;;;4986830;28;20050;-78
2023/07/07 01:58:34;;;;;;;1.35;0.60;;;13.90;99.90;;;;;;4987428;28;20112;-78
2023/07/07 02:01:00;;;;;;;0.65;0.45;;;13.90;99.90;;;;;;4973746;28;20049;-78
2023/07/07 02:03:28;;;;;;;0.63;0.40;;;13.90;99.90;;;;;;4973071;28;20046;-78
2023/07/07 02:05:54;;;;;;;1.25;0.70;;;13.90;99.90;;;;;;4990475;28;20054;-79
2023/07/07 02:08:21;;;;;;;0.73;0.47;;;13.80;99.90;;;;;;5007119;28;20403;-78
2023/07/07 02:10:48;;;;;;;0.73;0.50;;;13.80;99.90;;;;;;5007343;28;20046;-79
2023/07/07 02:13:15;;;;;;;1.35;0.63;;;13.80;99.90;;;;;;5006289;28;20054;-78
2023/07/07 02:15:41;;;;;;;1.15;0.57;;;13.70;99.90;;;;;;5007204;28;20042;-78
2023/07/07 02:18:08;;;;;;;0.45;0.40;;;13.70;99.90;;;;;;5000674;28;20050;-78
2023/07/07 02:20:35;;;;;;;0.88;0.50;;;13.70;99.90;;;;;;5006609;28;20053;-78
2023/07/07 02:23:02;;;;;;;0.90;0.73;;;13.70;99.90;;;;;;5006694;28;20054;-77
2023/07/07 02:25:29;;;;;;;0.73;0.40;;;13.60;99.90;;;;;;4993077;28;20132;-77
2023/07/07 02:27:55;;;;;;;1.10;0.60;;;13.60;99.90;;;;;;5005549;28;20046;-77
2023/07/07 02:30:23;;;;;;;0.90;0.63;;;13.50;99.90;;;;;;5006810;28;20050;-79
2023/07/07 02:32:50;;;;;;;0.88;0.60;;;13.50;99.90;;;;;;4989607;28;20042;-78
2023/07/07 02:35:17;;;;;;;0.85;0.55;;;13.50;99.90;;;;;;5006483;28;20136;-79
2023/07/07 02:37:43;;;;;;;0.40;0.40;;;13.40;99.90;;;;;;5006198;28;20127;-78
2023/07/07 02:40:10;;;;;;;1.35;0.77;;;13.40;99.90;;;;;;5006436;28;20058;-77
2023/07/07 02:42:37;;;;;;;0.77;0.60;;;13.40;99.90;;;;;;5005908;28;20049;-78
2023/07/07 02:45:04;;;;;;;0.50;0.47;;;13.40;99.90;;;;;;5006509;28;20046;-79
2023/07/07 02:47:31;;;;;;;0.95;0.60;;;13.50;99.90;;;;;;5004966;28;20128;-77
2023/07/07 02:49:58;;;;;;;1.48;0.73;;;13.50;99.90;;;;;;4988115;28;20057;-79
2023/07/07 02:52:26;;;;;;;0.52;0.45;;;13.50;99.90;;;;;;5005624;28;20054;-78
2023/07/07 02:54:52;;;;;;;0.90;0.57;;;13.50;99.90;;;;;;4980237;28;20054;-79
2023/07/07 02:57:19;;;;;;;1.15;0.50;;;13.50;99.90;;;;;;5006186;28;20057;-78
2023/07/07 02:59:46;;;;;;;0.68;0.63;;;13.50;99.90;;;;;;5005384;28;20563;-79
2023/07/07 03:02:13;;;;;;;0.70;0.57;;;13.50;99.90;;;;;;4999129;28;20069;-79
2023/07/07 03:04:39;;;;;;;1.02;0.70;;;13.40;99.90;;;;;;5020706;28;20122;-78
2023/07/07 03:07:06;;;;;;;1.25;0.60;;;13.40;99.90;;;;;;5010342;28;20073;-79
2023/07/07 03:09:35;;;;;;;0.95;0.57;;;13.30;99.90;;;;;;5006381;28;20115;-79
2023/07/07 03:12:02;;;;;;;1.20;0.60;;;13.30;99.90;;;;;;4988540;28;20351;-79
2023/07/07 03:14:28;;;;;;;0.95;0.63;;;13.20;99.90;;;;;;5005392;28;20056;-78
2023/07/07 03:16:58;;;;;;;0.85;0.50;;;13.30;99.90;;;;;;4988834;28;20050;-78
2023/07/07 03:19:25;;;;;;;0.80;0.57;;;13.30;99.90;;;;;;4988597;28;20108;-79
2023/07/07 03:21:55;;;;;;;1.15;0.70;;;13.30;99.90;;;;;;4988884;28;20137;-79
2023/07/07 03:24:22;;;;;;;0.77;0.60;;;13.30;99.90;;;;;;4988503;28;20068;-78
2023/07/07 03:26:49;;;;;;;0.40;0.30;;;13.30;99.90;;;;;;4971705;28;20096;-78
2023/07/07 03:29:15;;;;;;;0.98;0.60;;;13.30;99.90;;;;;;4971996;28;20112;-79
2023/07/07 03:31:42;;;;;;;0.85;0.52;;;13.30;99.90;;;;;;4971640;28;20096;-78
2023/07/07 03:34:09;;;;;;;1.00;0.60;;;13.20;99.90;;;;;;4971850;28;20196;-78
2023/07/07 03:36:37;;;;;;;0.82;0.57;;;13.20;99.90;;;;;;4972575;28;20041;-79
2023/07/07 03:39:04;;;;;;;1.08;0.70;;;13.10;99.90;;;;;;4962008;28;20053;-78
2023/07/07 03:41:31;;;;;;;0.85;0.55;;;13.10;99.90;;;;;;5003668;28;20095;-78
2023/07/07 03:43:58;;;;;;;0.80;0.47;;;13.10;99.90;;;;;;4992560;28;20085;-78
2023/07/07 03:46:26;;;;;;;0.77;0.50;;;13.00;99.90;;;;;;5005529;28;20046;-79
2023/07/07 03:48:53;;;;;;;0.70;0.50;;;13.00;99.90;;;;;;4981201;28;20042;-78
2023/07/07 03:51:22;;;;;;;0.93;0.65;;;13.00;99.90;;;;;;4988596;28;20698;-79
2023/07/07 03:53:49;;;;;;;0.88;0.50;;;12.90;99.90;;;;;;4993419;28;20046;-78
2023/07/07 03:56:16;;;;;;;1.10;0.60;;;12.90;99.90;;;;;;4982796;28;20653;-79
2023/07/07 03:58:43;;;;;;;0.60;0.60;;;12.90;99.90;;;;;;5006992;28;20501;-78
2023/07/07 04:01:11;;;;;;;0.70;0.60;;;12.90;99.90;;;;;;5005632;28;20045;-77
2023/07/07 04:03:37;;;;;;;0.80;0.52;;;12.80;99.90;;;;;;4994534;28;20053;-78
2023/07/07 04:06:04;;;;;;;0.82;0.60;;;12.80;99.90;;;;;;4982317;28;20059;-77
2023/07/07 04:08:33;;;;;;;1.10;0.60;;;12.80;99.90;;;;;;4998984;28;20038;-79
2023/07/07 04:11:06;;;;;;;1.05;0.60;;;12.80;99.90;;;;;;5022673;28;20057;-78
2023/07/07 04:13:35;;;;;;;0.82;0.50;;;12.70;99.90;;;;;;4995255;28;20134;-78
2023/07/07 04:16:07;;;;;;;0.75;0.52;;;12.90;99.90;;;;;;4958698;28;20856;-79
2023/07/07 04:18:35;;;;;;;0.75;0.60;;;12.90;99.90;;;;;;4971809;28;20570;-78
2023/07/07 04:21:11;;;;;;;0.75;0.40;;;12.90;99.90;;;;;;4972093;28;20042;-78
2023/07/07 04:23:41;;;;;;;0.70;0.60;;;12.90;99.90;;;;;;4972321;28;20085;-78
2023/07/07 04:26:08;;;;;;;0.85;0.52;;;12.90;99.90;;;;;;4970754;28;20103;-78
2023/07/07 04:28:36;;;;;;;0.77;0.60;;;13.00;99.90;;;;;;4990084;28;20104;-77
2023/07/07 04:31:03;;;;;;;0.52;0.45;;;13.00;99.90;;;;;;4959938;28;20160;-78
2023/07/07 04:33:30;;;;;;;0.70;0.52;;;13.10;99.90;;;;;;4971057;28;20046;-78
2023/07/07 04:36:02;;;;;;;0.60;0.50;;;13.10;99.90;;;;;;4980470;28;20100;-78
2023/07/07 04:38:32;;;;;;;0.57;0.40;;;13.20;99.90;;;;;;4978488;28;20402;-78
2023/07/07 04:41:11;;;;;;;0.80;0.60;;;13.20;99.90;;;;;;4990820;28;20042;-78
2023/07/07 04:43:40;;;;;;;0.63;0.57;;;13.20;99.90;;;;;;4987130;28;20045;-79
2023/07/07 04:46:08;;;;;;;0.80;0.50;;;13.20;99.90;;;;;;5004876;28;20590;-77
2023/07/07 04:48:35;;;;;;;0.60;0.38;;;13.30;99.90;;;;;;4986332;28;20512;-78
2023/07/07 04:51:06;;;;;;;0.90;0.63;;;13.30;99.90;;;;;;4971471;28;20297;-78
2023/07/07 04:53:33;;;;;;;0.70;0.50;;;13.30;99.90;;;;;;4987139;28;20499;-78
2023/07/07 04:56:04;;;;;;;1.88;0.95;;;13.40;99.90;;;;;;4988677;28;20104;-79
2023/07/07 04:58:31;;;;;;;0.63;0.50;;;13.40;99.90;;;;;;4998074;28;20405;-78
2023/07/07 05:01:06;;;;;;;0.77;0.68;;;13.40;99.90;;;;;;4991245;28;20440;-77
2023/07/07 05:03:34;;;;;;;0.90;0.60;;;13.50;99.90;;;;;;4962518;28;20063;-78
2023/07/07 05:06:03;;;;;;;1.70;0.82;;;13.50;99.90;;;;;;4962046;28;20478;-78
2023/07/07 05:08:31;;;;;;;0.95;0.70;;;13.60;99.90;;;;;;4963216;28;20458;-78
2023/07/07 05:10:58;;;;;;;0.80;0.60;;;13.60;99.90;;;;;;4979275;28;20113;-78
2023/07/07 05:13:26;;;;;;;1.02;0.70;;;13.70;99.90;;;;;;4946708;28;20417;-78
2023/07/07 05:16:00;;;;;;;0.82;0.70;;;13.70;99.90;;;;;;4948226;28;20449;-78
2023/07/07 05:18:27;;;;;;;0.90;0.63;;;13.80;99.90;;;;;;4963253;28;20776;-77
2023/07/07 05:20:54;;;;;;;0.82;0.57;;;13.90;99.90;;;;;;4979843;28;20086;-78
2023/07/07 05:23:21;;;;;;;1.38;0.70;;;13.90;99.90;;;;;;4980247;28;20068;-78
2023/07/07 05:25:49;;;;;;;1.40;0.52;;;13.90;99.90;;;;;;4961238;28;20065;-77
2023/07/07 05:28:16;;;;;;;0.65;0.55;;;13.90;99.90;;;;;;4945367;28;20066;-78
2023/07/07 05:30:43;;;;;;;1.73;0.70;;;14.00;99.90;;;;;;4932127;28;20050;-78
2023/07/07 05:33:10;;;;;;;1.13;0.73;;;14.00;99.90;;;;;;4947665;28;20148;-78
2023/07/07 05:35:45;;;;;;;1.00;0.60;;;14.10;99.90;;;;;;4947910;28;20050;-78
2023/07/07 05:38:11;;;;;;;0.93;0.60;;;14.20;99.90;;;;;;4966768;28;20813;-78
2023/07/07 05:40:45;;;;;;;0.80;0.65;;;14.20;99.90;;;;;;4948765;28;20085;-77
2023/07/07 05:43:15;;;;;;;1.15;0.55;;;14.30;99.90;;;;;;4967098;28;20061;-77
2023/07/07 05:45:42;;;;;;;0.95;0.50;;;14.30;99.90;;;;;;4967742;28;20050;-78
2023/07/07 05:48:10;;;;;;;0.88;0.60;;;14.40;99.90;;;;;;4967090;28;20058;-78
2023/07/07 05:50:38;;;;;;;0.73;0.50;;;14.40;99.90;;;;;;4979991;28;20101;-79
2023/07/07 05:53:05;;;;;;;0.60;0.50;;;14.50;99.90;;;;;;4957552;28;20188;-78
2023/07/07 05:55:33;;;;;;;1.13;0.60;;;14.50;99.90;;;;;;4983990;28;20132;-78
2023/07/07 05:58:01;;;;;;;0.80;0.57;;;14.60;99.90;;;;;;4966332;28;20054;-78
2023/07/07 06:00:29;;;;;;;1.13;0.73;;;14.60;99.90;;;;;;4950918;28;20050;-79
2023/07/07 06:02:56;;;;;;;0.73;0.60;;;14.70;99.90;;;;;;4960732;28;20062;-79
2023/07/07 06:05:23;;;;;;;0.43;0.38;;;14.80;99.90;;;;;;4985591;28;20054;-80
2023/07/07 06:07:51;;;;;;;2.60;0.60;;;14.90;99.90;;;;;;5003108;28;20053;-79
2023/07/07 06:10:18;;;;;;;1.23;0.60;;;15.00;99.90;;;;;;4986232;28;20116;-79
2023/07/07 06:12:45;;;;;;;0.75;0.50;;;15.10;99.90;;;;;;5003160;28;20080;-78
2023/07/07 06:15:11;;;;;;;1.48;0.70;;;15.10;99.90;;;;;;4986286;28;20069;-78
2023/07/07 06:17:38;;;;;;;0.80;0.68;;;15.20;99.90;;;;;;5004301;28;20131;-78
2023/07/07 06:20:06;;;;;;;1.25;0.82;;;15.30;99.90;;;;;;5002341;28;20053;-78
2023/07/07 06:22:32;;;;;;;0.85;0.68;;;15.40;99.90;;;;;;4985772;28;20445;-79
2023/07/07 06:25:00;;;;;;;0.85;0.45;;;15.40;99.90;;;;;;4984081;28;20054;-79
2023/07/07 06:27:27;;;;;;;0.80;0.60;;;15.50;99.90;;;;;;4966654;28;20054;-78
2023/07/07 06:29:54;;;;;;;0.52;0.40;;;15.60;99.90;;;;;;4966616;28;20133;-79
2023/07/07 06:32:21;;;;;;;0.70;0.57;;;15.70;99.90;;;;;;4969472;28;20058;-79
2023/07/07 06:34:47;;;;;;;1.30;0.85;;;15.70;99.90;;;;;;4968521;28;20089;-79
2023/07/07 06:37:14;;;;;;;0.93;0.60;;;15.80;99.90;;;;;;4985678;28;20085;-78
2023/07/07 06:39:41;;;;;;;1.10;0.47;;;15.90;99.90;;;;;;4970521;28;20058;-78
2023/07/07 06:42:08;;;;;;;1.35;0.90;;;16.00;99.90;;;;;;4969179;28;20058;-77
2023/07/07 06:44:40;;;;;;;0.73;0.55;;;16.10;99.90;;;;;;4968971;28;20049;-78
2023/07/07 06:47:16;;;;;;;1.63;0.90;;;16.10;99.90;;;;;;4958358;28;20046;-78
2023/07/07 06:49:43;;;;;;;1.40;0.75;;;16.30;99.90;;;;;;4955432;28;20100;-78
2023/07/07 06:52:10;;;;;;;1.63;1.00;;;16.40;99.90;;;;;;4956519;28;20057;-78
2023/07/07 06:54:37;;;;;;;1.60;0.70;;;16.40;99.90;;;;;;4972274;28;20057;-78
2023/07/07 06:57:04;;;;;;;1.52;0.70;;;16.50;99.90;;;;;;4988153;28;20061;-78
2023/07/07 06:59:31;;;;;;;1.83;1.42;;;16.60;99.90;;;;;;5005558;28;20050;-78
2023/07/07 07:01:58;;;;;;;0.70;0.65;;;16.70;99.90;;;;;;5003311;28;20053;-79
2023/07/07 07:04:24;;;;;;;1.95;1.38;;;16.70;99.90;;;;;;5002443;28;20058;-78
2023/07/07 07:06:51;;;;;;;1.30;0.90;;;16.80;99.90;;;;;;4984778;28;20046;-78
2023/07/07 07:09:18;;;;;;;1.40;0.80;;;16.80;99.90;;;;;;4972227;28;20050;-78
2023/07/07 07:11:45;;;;;;;1.77;1.13;;;16.90;99.90;;;;;;5005366;28;20045;-79
2023/07/07 07:14:14;;;;;;;1.63;0.88;;;17.00;99.90;;;;;;5005355;28;20496;-79
2023/07/07 07:16:41;;;;;;;1.70;0.95;;;17.00;99.90;;;;;;4988841;28;20124;-79
2023/07/07 07:19:08;;;;;;;1.38;1.05;;;17.10;99.90;;;;;;4967832;28;20568;-80
2023/07/07 07:21:35;;;;;;;1.40;0.85;;;17.20;99.90;;;;;;4979061;28;20050;-79
2023/07/07 07:24:01;;;;;;;1.33;0.90;;;17.30;99.90;;;;;;4987624;28;20619;-78
2023/07/07 07:26:28;;;;;;;1.05;0.80;;;17.30;99.90;;;;;;4987524;28;20113;-78
2023/07/07 07:28:55;;;;;;;1.48;0.93;;;17.40;99.90;;;;;;4987546;28;20057;-78
2023/07/07 07:31:22;;;;;;;1.58;1.00;;;17.50;99.90;;;;;;4988109;28;20073;-78
2023/07/07 07:33:51;;;;;;;0.98;0.80;;;17.60;99.90;;;;;;4954588;28;20050;-80
2023/07/07 07:36:17;;;;;;;1.27;0.90;;;17.70;99.90;;;;;;4971867;28;20149;-78
2023/07/07 07:38:44;;;;;;;1.02;0.70;;;17.80;99.90;;;;;;4987446;28;20128;-78
2023/07/07 07:41:11;;;;;;;1.25;0.90;;;17.80;99.90;;;;;;4987968;28;20054;-78
2023/07/07 07:43:38;;;;;;;1.50;1.00;;;17.90;99.90;;;;;;4986563;28;20048;-78
2023/07/07 07:46:05;;;;;;;0.93;0.65;;;18.00;99.90;;;;;;5005800;28;20054;-77
2023/07/07 07:48:32;;;;;;;1.65;0.82;;;18.10;99.90;;;;;;5003727;28;20613;-77
2023/07/07 07:50:58;;;;;;;1.30;0.80;;;18.10;99.90;;;;;;4987708;28;20092;-78
2023/07/07 07:53:25;;;;;;;1.70;1.10;;;18.20;99.90;;;;;;4970607;28;20060;-78
2023/07/07 07:55:52;;;;;;;1.05;0.77;;;18.30;99.90;;;;;;4988233;28;20109;-78
2023/07/07 07:58:19;;;;;;;1.42;0.90;;;18.40;99.90;;;;;;5004224;28;20081;-78
2023/07/07 08:00:46;;;;;;;1.48;0.90;;;18.50;99.90;;;;;;4971624;28;20046;-78
2023/07/07 08:03:12;;;;;;;1.48;0.70;;;18.50;99.90;;;;;;5005564;28;20148;-79
2023/07/07 08:05:40;;;;;;;0.95;0.50;;;18.60;99.90;;;;;;4980367;28;20124;-78
2023/07/07 08:08:07;;;;;;;1.27;0.90;;;18.70;99.90;;;;;;4986852;28;20061;-78
2023/07/07 08:10:34;;;;;;;1.88;0.80;;;18.80;99.90;;;;;;4955747;28;20413;-79
2023/07/07 08:13:01;;;;;;;1.33;0.85;;;18.90;99.90;;;;;;4954071;28;20068;-79
2023/07/07 08:15:28;;;;;;;1.17;0.80;;;18.90;99.90;;;;;;4970962;28;20105;-79
2023/07/07 08:17:55;;;;;;;1.50;0.85;;;19.00;99.90;;;;;;4999697;28;20050;-78
2023/07/07 08:20:24;;;;;;;1.83;0.95;;;19.10;99.90;;;;;;4981804;28;20041;-79
2023/07/07 08:22:51;;;;;;;0.98;0.70;;;19.20;99.90;;;;;;4968837;28;20053;-79
2023/07/07 08:25:18;;;;;;;1.10;0.85;;;19.30;99.90;;;;;;4986081;28;20081;-79
2023/07/07 08:27:45;;;;;;;1.75;1.15;;;19.40;99.90;;;;;;4969700;28;20053;-79
2023/07/07 08:30:14;;;;;;;1.08;0.80;;;19.40;99.90;;;;;;4971287;28;20053;-79
2023/07/07 08:32:41;;;;;;;1.20;0.85;;;19.60;99.90;;;;;;5004161;28;20088;-79
2023/07/07 08:35:09;;;;;;;1.30;0.75;;;19.60;99.90;;;;;;4971127;28;20057;-78
2023/07/07 08:37:36;;;;;;;1.85;0.80;;;19.70;99.90;;;;;;4967507;28;20460;-78
2023/07/07 08:40:04;;;;;;;1.42;0.90;;;19.80;99.90;;;;;;4966857;28;20054;-79
2023/07/07 08:42:37;;;;;;;1.80;1.00;;;19.80;99.90;;;;;;4953939;28;20049;-78
2023/07/07 08:45:11;;;;;;;0.93;0.70;;;19.90;99.90;;;;;;4985393;28;20073;-78
2023/07/07 08:47:51;;;;;;;1.38;1.02;;;20.00;99.90;;;;;;4966874;28;20424;-79
2023/07/07 08:50:28;;;;;;;1.13;0.82;;;20.10;99.90;;;;;;4967441;28;20131;-78
2023/07/07 08:53:23;;;;;;;1.35;0.88;;;20.20;99.90;;;;;;4971484;28;20061;-79
2023/07/07 08:55:52;;;;;;;2.08;0.88;;;20.20;99.90;;;;;;4974201;28;20104;-79
2023/07/07 08:58:44;;;;;;;0.95;0.75;;;20.30;99.90;;;;;;4986274;28;20057;-79
2023/07/07 09:01:36;;;;;;;1.02;0.80;;;20.40;99.90;;;;;;4987041;28;20049;-78
2023/07/07 09:04:19;;;;;;;1.17;0.75;;;20.50;99.90;;;;;;4988635;28;20049;-78
2023/07/07 09:06:51;;;;;;;1.08;0.80;;;20.60;99.90;;;;;;4970697;28;20061;-78
2023/07/07 09:09:27;;;;;;;1.10;1.00;;;20.70;99.90;;;;;;5004096;28;20050;-78
2023/07/07 09:12:12;;;;;;;1.42;0.90;;;20.90;99.90;;;;;;5004507;28;20050;-78
2023/07/07 09:14:39;;;;;;;1.77;0.95;;;20.90;99.90;;;;;;4987577;28;20049;-78
2023/07/07 09:17:27;;;;;;;1.42;1.02;;;21.10;99.90;;;;;;4972187;28;20400;-79
2023/07/07 09:19:54;;;;;;;1.10;0.93;;;21.10;99.90;;;;;;4974268;28;20050;-78
2023/07/07 09:22:27;;;;;;;1.55;1.10;;;21.20;99.90;;;;;;4990371;28;20065;-77
2023/07/07 09:24:57;;;;;;;3.10;1.38;;;21.20;99.90;;;;;;4971555;28;20057;-78
2023/07/07 09:27:30;;;;;;;1.50;1.10;;;21.30;99.90;;;;;;4987279;28;20092;-80
2023/07/07 09:30:22;;;;;;;1.23;0.80;;;21.50;99.90;;;;;;4974646;28;20409;-78
2023/07/07 09:32:49;;;;;;;1.33;0.90;;;21.60;99.90;;;;;;4976066;28;20046;-78
2023/07/07 09:35:16;;;;;;;1.50;0.82;;;21.70;99.90;;;;;;4974068;28;20465;-79
2023/07/07 09:37:55;;;;;;;1.27;1.05;;;21.90;99.90;;;;;;4973786;28;20496;-79
2023/07/07 09:40:27;;;;;;;1.42;0.90;;;22.10;99.90;;;;;;4974579;28;20481;-79
2023/07/07 09:43:20;;;;;;;3.87;1.00;;;22.20;99.90;;;;;;4973469;28;20124;-78
2023/07/07 09:46:41;;;;;;;1.20;0.90;;;22.30;99.90;;;;;;4985788;28;20139;-78
2023/07/07 09:49:07;;;;;;;1.58;0.90;;;22.50;99.90;;;;;;4907993;29;20147;-78
2023/07/07 09:51:37;;;;;;;1.95;1.00;;;22.70;99.90;;;;;;4908046;29;20084;-79
2023/07/07 09:54:10;;;;;;;1.75;0.90;;;22.80;99.90;;;;;;4956663;28;20072;-79
2023/07/07 09:57:01;;;;;;;1.30;0.98;;;22.90;99.80;;;;;;4957989;28;20053;-78
2023/07/07 09:59:41;;;;;;;1.13;0.88;;;23.10;99.90;;;;;;4974292;28;20050;-79
2023/07/07 10:02:16;;;;;;;1.30;0.98;;;23.30;98.90;;;;;;4957592;28;20073;-78
2023/07/07 10:04:45;;;;;;;1.20;0.90;;;23.40;97.90;;;;;;4973603;28;20068;-78
2023/07/07 10:07:12;;;;;;;1.50;1.10;;;23.60;98.10;;;;;;4973834;28;20130;-78
2023/07/07 10:09:39;;;;;;;0.82;0.65;;;23.70;99.20;;;;;;4957180;28;20158;-79
2023/07/07 10:12:09;;;;;;;1.95;1.10;;;23.80;99.00;;;;;;4973268;28;20104;-78
2023/07/07 10:14:48;;;;;;;1.35;1.02;;;23.90;98.30;;;;;;4976548;28;20088;-79
2023/07/07 10:17:19;;;;;;;1.42;0.77;;;24.10;98.00;;;;;;4957493;28;20057;-77
2023/07/07 10:19:52;;;;;;;1.40;0.90;;;24.20;98.10;;;;;;4972721;28;20518;-79
2023/07/07 10:22:19;;;;;;;;;;;24.40;97.20;;;;;;4973736;28;20052;-78
2023/07/07 10:24:46;;;;;;;1.08;0.75;;;24.40;97.10;;;;;;4985295;28;19935;-78
2023/07/07 10:27:15;;;;;;;1.05;0.82;;;24.50;97.00;;;;;;4985336;28;20077;-78
2023/07/07 10:29:42;;;;;;;0.93;0.70;;;24.70;97.40;;;;;;4972406;28;20053;-79
2023/07/07 10:32:17;;;;;;;1.27;0.80;;;24.90;96.80;;;;;;4989392;28;20185;-79
2023/07/07 10:34:49;;;;;;;1.00;0.90;;;25.10;96.70;;;;;;4988750;28;20104;-79
2023/07/07 10:37:19;;;;;;;1.20;0.98;;;25.20;95.60;;;;;;4973570;28;20054;-79
2023/07/07 10:39:57;;;;;;;1.30;1.05;;;25.40;95.70;;;;;;4988411;28;20080;-79
2023/07/07 10:42:24;;;;;;;1.35;0.90;;;25.40;95.80;;;;;;4970732;28;20099;-79
2023/07/07 10:44:55;;;;;;;1.50;1.15;;;25.50;95.60;;;;;;4952906;28;20053;-79
2023/07/07 10:47:29;;;;;;;1.60;1.15;;;25.60;94.60;;;;;;4970722;28;20050;-81
2023/07/07 10:49:57;;;;;;;1.40;1.02;;;25.60;94.50;;;;;;4973116;28;20417;-79
2023/07/07 10:52:42;;;;;;;1.63;1.10;;;25.80;95.30;;;;;;4956703;28;20176;-79
2023/07/07 10:55:37;;;;;;;1.73;1.10;;;25.80;94.80;;;;;;4991582;28;20075;-78
2023/07/07 10:58:24;;;;;;;1.75;1.27;;;26.10;95.30;;;;;;4987948;28;20505;-78
2023/07/07 11:00:51;;;;;;;1.20;1.00;;;26.20;94.80;;;;;;4974027;28;20569;-79
2023/07/07 11:03:46;;;;;;;1.20;0.90;;;26.40;95.10;;;;;;5005017;28;20060;-79
2023/07/07 11:06:29;;;;;;;1.08;0.82;;;26.60;94.50;;;;;;4972582;28;20054;-79
2023/07/07 11:09:16;;;;;;;1.30;1.10;;;26.80;95.20;;;;;;5005060;28;20466;-79
2023/07/07 11:11:52;;;;;;;0.93;0.88;;;27.00;94.70;;;;;;5005757;28;20053;-81
2023/07/07 11:14:51;;;;;;;1.30;1.08;;;27.20;93.20;;;;;;4987705;28;20405;-78
2023/07/07 11:17:44;;;;;;;1.73;0.98;;;27.30;92.90;;;;;;4958549;28;20112;-79
2023/07/07 11:20:30;;;;;;;1.67;1.10;;;27.50;93.00;;;;;;4972068;28;20482;-78
2023/07/07 11:23:16;;;;;;;1.60;1.17;;;27.70;92.70;;;;;;5003974;28;20046;-78
2023/07/07 11:25:58;;;;;;;1.70;1.13;;;27.90;92.50;;;;;;5002195;28;20506;-81
2023/07/07 11:28:44;;;;;;;2.10;1.33;;;28.20;92.70;;;;;;5002356;28;20046;-78
2023/07/07 11:31:28;;;;;;;2.78;1.98;;;28.40;91.30;;;;;;5005856;28;20049;-79
2023/07/07 11:34:02;;;;;;;1.77;1.30;;;28.70;90.70;;;;;;4987483;28;20089;-79
2023/07/07 11:37:06;;;;;;;1.50;1.20;;;28.70;90.00;;;;;;5004876;28;20050;-79
2023/07/07 11:39:40;;;;;;;2.22;1.60;;;28.80;90.60;;;;;;4984855;28;20982;-80
2023/07/07 11:42:23;;;;;;;1.40;1.10;;;29.00;90.20;;;;;;4984852;28;20112;-79
2023/07/07 11:45:27;;;;;;;1.50;1.20;;;29.10;88.90;;;;;;4984287;28;20073;-79
2023/07/07 11:47:57;;;;;;;1.80;1.30;;;29.20;90.70;;;;;;4987532;28;20080;-79
2023/07/07 11:50:33;;;;;;;1.80;1.25;;;29.40;88.30;;;;;;5005336;28;20049;-80
2023/07/07 11:53:15;;;;;;;1.92;1.40;;;29.40;90.00;;;;;;5004496;28;20390;-79
2023/07/07 11:55:55;;;;;;;1.38;1.10;;;29.60;89.20;;;;;;5004997;28;20136;-80
2023/07/07 11:58:41;;;;;;;1.88;1.67;;;29.90;88.50;;;;;;4986920;28;20053;-80
2023/07/07 12:01:31;;;;;;;1.73;1.25;;;30.20;87.00;;;;;;4989301;28;20046;-79
2023/07/07 12:04:04;;;;;;;1.73;1.33;;;30.40;87.60;;;;;;4970895;28;20115;-80
2023/07/07 12:06:47;;;;;;;2.00;1.50;;;30.60;85.10;;;;;;4956768;28;20136;-80
2023/07/07 12:09:32;;;;;;;1.70;1.25;;;30.90;84.30;;;;;;4986698;28;20054;-80
2023/07/07 12:12:23;;;;;;;2.88;2.03;;;31.10;84.70;;;;;;4987139;28;20119;-79
2023/07/07 12:14:59;;;;;;;1.95;1.75;;;31.20;83.90;;;;;;4989423;28;20050;-79
2023/07/07 12:17:36;;;;;;;1.60;1.45;;;31.40;80.90;;;;;;4957588;28;20140;-79
2023/07/07 12:20:18;;;;;;;2.13;1.45;;;31.50;80.10;;;;;;4971852;28;20078;-78
2023/07/07 12:22:45;;;;;;;1.42;1.27;;;31.90;82.20;;;;;;4953963;28;20411;-79
2023/07/07 12:25:12;;;;;;;2.00;1.60;;;32.30;81.80;;;;;;4951326;28;20141;-79
2023/07/07 12:27:41;;;;;;;1.90;1.30;;;32.60;81.40;;;;;;5001122;28;20085;-79
2023/07/07 12:30:25;;;;;;;1.63;1.52;;;33.10;79.30;;;;;;4951518;28;20082;-79
2023/07/07 12:32:52;;;;;;;1.40;1.20;;;33.50;78.50;;;;;;4968707;28;20057;-78
2023/07/07 12:35:26;;;;;;;2.00;1.80;;;33.80;76.70;;;;;;5000543;28;20062;-79
2023/07/07 12:37:55;;;;;;;1.88;1.60;;;34.00;75.80;;;;;;4985697;28;20056;-78
2023/07/07 12:40:22;;;;;;;1.77;1.67;;;34.10;75.50;;;;;;4971014;28;20054;-78
2023/07/07 12:43:07;;;;;;;1.77;1.52;;;33.60;75.90;;;;;;4966994;28;20119;-79
2023/07/07 12:45:37;;;;;;;2.20;1.80;;;33.10;75.80;;;;;;4983749;28;20053;-79
2023/07/07 12:48:06;;;;;;;2.00;1.77;;;33.10;75.90;;;;;;4970325;28;20049;-79
2023/07/07 12:50:40;;;;;;;2.40;2.00;;;33.50;74.70;;;;;;4986369;28;20045;-79
2023/07/07 12:53:29;;;;;;;2.85;2.15;;;33.80;72.50;;;;;;4951089;28;20378;-79
2023/07/07 12:56:06;;;;;;;2.38;2.00;;;34.20;72.90;;;;;;5001384;28;20050;-79
2023/07/07 12:58:39;;;;;;;3.15;2.17;;;34.50;73.40;;;;;;4983510;28;20064;-79
2023/07/07 13:01:38;;;;;;;2.15;1.90;;;34.50;72.30;;;;;;5001240;28;20165;-78
2023/07/07 13:04:07;;;;;;;2.08;1.85;;;34.90;72.40;;;;;;4961599;28;20050;-80
2023/07/07 13:06:38;;;;;;;2.15;1.85;;;35.30;70.30;;;;;;4986847;28;20149;-79
2023/07/07 13:09:14;;;;;;;2.70;1.73;;;35.50;69.60;;;;;;4986596;28;20050;-79
2023/07/07 13:11:41;;;;;;;2.35;2.15;;;35.20;68.30;;;;;;5003541;28;20061;-79